sensor_id;sensor_type;location;lat;lon;timestamp;P1;durP1;ratioP1;P2;durP2;ratioP2
13240;SDS011;6687;47.790;7.322;2024-01-06T06:19:07;1.88;;;0.77;;
13240;SDS011;6687;47.790;7.322;2024-01-06T06:21:34;0.75;;;0.75;;
13240;SDS011;6687;47.790;7.322;2024-01-06T06:24:01;0.75;;;0.57;;
13240;SDS011;6687;47.790;7.322;2024-01-06T06:26:28;1.25;;;0.68;;
13240;SDS011;6687;47.790;7.322;2024-01-06T06:28:54;0.35;;;0.35;;
13240;SDS011;6687;47.790;7.322;2024-01-06T06:31:21;0.68;;;0.68;;
13240;SDS011;6687;47.790;7.322;2024-01-06T06:33:48;0.22;;;0.22;;
13240;SDS011;6687;47.790;7.322;2024-01-06T06:36:16;0.30;;;0.30;;
13240;SDS011;6687;47.790;7.322;2024-01-06T06:38:43;0.68;;;0.47;;
13240;SDS011;6687;47.790;7.322;2024-01-06T06:41:09;0.50;;;0.50;;
13240;SDS011;6687;47.790;7.322;2024-01-06T06:43:36;0.55;;;0.55;;
13240;SDS011;6687;47.790;7.322;2024-01-06T06:46:03;2.85;;;0.98;;
13240;SDS011;6687;47.790;7.322;2024-01-06T06:48:30;0.80;;;0.80;;
13240;SDS011;6687;47.790;7.322;2024-01-06T06:50:57;0.90;;;0.90;;
13240;SDS011;6687;47.790;7.322;2024-01-06T06:53:25;1.17;;;0.95;;
13240;SDS011;6687;47.790;7.322;2024-01-06T06:55:51;1.35;;;1.25;;
13240;SDS011;6687;47.790;7.322;2024-01-06T06:58:18;0.57;;;0.57;;
13240;SDS011;6687;47.790;7.322;2024-01-06T07:00:45;1.45;;;0.68;;
13240;SDS011;6687;47.790;7.322;2024-01-06T07:03:11;0.68;;;0.68;;
13240;SDS011;6687;47.790;7.322;2024-01-06T07:05:40;0.90;;;0.70;;
13240;SDS011;6687;47.790;7.322;2024-01-06T07:08:07;0.40;;;0.40;;
13240;SDS011;6687;47.790;7.322;2024-01-06T07:10:35;0.50;;;0.50;;
13240;SDS011;6687;47.790;7.322;2024-01-06T07:13:03;0.93;;;0.93;;
13240;SDS011;6687;47.790;7.322;2024-01-06T07:15:30;1.05;;;1.00;;
13240;SDS011;6687;47.790;7.322;2024-01-06T07:17:57;0.82;;;0.82;;
13240;SDS011;6687;47.790;7.322;2024-01-06T07:20:24;0.77;;;0.75;;
13240;SDS011;6687;47.790;7.322;2024-01-06T07:22:50;0.47;;;0.47;;
13240;SDS011;6687;47.790;7.322;2024-01-06T07:25:17;0.57;;;0.52;;
13240;SDS011;6687;47.790;7.322;2024-01-06T07:27:45;0.47;;;0.47;;
13240;SDS011;6687;47.790;7.322;2024-01-06T07:30:12;0.40;;;0.40;;
13240;SDS011;6687;47.790;7.322;2024-01-06T07:32:39;0.80;;;0.80;;
13240;SDS011;6687;47.790;7.322;2024-01-06T07:35:07;0.68;;;0.68;;
13240;SDS011;6687;47.790;7.322;2024-01-06T07:37:34;0.68;;;0.68;;
13240;SDS011;6687;47.790;7.322;2024-01-06T07:40:01;0.70;;;0.70;;
13240;SDS011;6687;47.790;7.322;2024-01-06T07:42:28;0.70;;;0.70;;
13240;SDS011;6687;47.790;7.322;2024-01-06T07:44:56;1.35;;;1.25;;
13240;SDS011;6687;47.790;7.322;2024-01-06T07:47:23;1.40;;;1.30;;
13240;SDS011;6687;47.790;7.322;2024-01-06T07:49:50;1.00;;;1.00;;
13240;SDS011;6687;47.790;7.322;2024-01-06T07:52:18;1.10;;;1.10;;
13240;SDS011;6687;47.790;7.322;2024-01-06T07:54:44;1.00;;;0.98;;
13240;SDS011;6687;47.790;7.322;2024-01-06T07:57:11;1.58;;;0.88;;
13240;SDS011;6687;47.790;7.322;2024-01-06T07:59:38;1.10;;;1.00;;
13240;SDS011;6687;47.790;7.322;2024-01-06T08:02:06;0.82;;;0.82;;
13240;SDS011;6687;47.790;7.322;2024-01-06T08:04:34;1.30;;;1.23;;
13240;SDS011;6687;47.790;7.322;2024-01-06T08:07:01;0.77;;;0.77;;
13240;SDS011;6687;47.790;7.322;2024-01-06T08:09:28;0.73;;;0.73;;
13240;SDS011;6687;47.790;7.322;2024-01-06T08:11:54;1.17;;;1.15;;
13240;SDS011;6687;47.790;7.322;2024-01-06T08:14:21;0.73;;;0.60;;
13240;SDS011;6687;47.790;7.322;2024-01-06T08:16:48;0.73;;;0.73;;
13240;SDS011;6687;47.790;7.322;2024-01-06T08:19:16;0.60;;;0.60;;
13240;SDS011;6687;47.790;7.322;2024-01-06T08:21:43;0.63;;;0.63;;
13240;SDS011;6687;47.790;7.322;2024-01-06T08:24:09;1.25;;;1.13;;
13240;SDS011;6687;47.790;7.322;2024-01-06T08:26:36;0.80;;;0.80;;
13240;SDS011;6687;47.790;7.322;2024-01-06T08:29:03;0.50;;;0.50;;
13240;SDS011;6687;47.790;7.322;2024-01-06T08:31:29;0.70;;;0.70;;
13240;SDS011;6687;47.790;7.322;2024-01-06T08:33:56;0.65;;;0.60;;
13240;SDS011;6687;47.790;7.322;2024-01-06T08:36:24;0.65;;;0.65;;
13240;SDS011;6687;47.790;7.322;2024-01-06T08:38:51;0.80;;;0.80;;
13240;SDS011;6687;47.790;7.322;2024-01-06T08:41:18;0.80;;;0.80;;
13240;SDS011;6687;47.790;7.322;2024-01-06T08:43:44;0.60;;;0.60;;
13240;SDS011;6687;47.790;7.322;2024-01-06T08:46:11;0.80;;;0.80;;
13240;SDS011;6687;47.790;7.322;2024-01-06T08:48:38;0.43;;;0.43;;
13240;SDS011;6687;47.790;7.322;2024-01-06T08:51:04;0.68;;;0.68;;
13240;SDS011;6687;47.790;7.322;2024-01-06T08:53:32;0.70;;;0.70;;
13240;SDS011;6687;47.790;7.322;2024-01-06T08:55:59;0.43;;;0.43;;
13240;SDS011;6687;47.790;7.322;2024-01-06T08:58:26;1.02;;;1.02;;
13240;SDS011;6687;47.790;7.322;2024-01-06T09:00:53;0.73;;;0.73;;
13240;SDS011;6687;47.790;7.322;2024-01-06T09:03:20;0.80;;;0.80;;
13240;SDS011;6687;47.790;7.322;2024-01-06T09:05:50;0.40;;;0.40;;
13240;SDS011;6687;47.790;7.322;2024-01-06T09:08:17;1.92;;;1.10;;
13240;SDS011;6687;47.790;7.322;2024-01-06T09:10:45;1.00;;;1.00;;
13240;SDS011;6687;47.790;7.322;2024-01-06T09:13:12;2.70;;;1.08;;
13240;SDS011;6687;47.790;7.322;2024-01-06T09:15:39;0.60;;;0.60;;
13240;SDS011;6687;47.790;7.322;2024-01-06T09:18:06;0.65;;;0.65;;
13240;SDS011;6687;47.790;7.322;2024-01-06T09:20:33;1.02;;;1.02;;
13240;SDS011;6687;47.790;7.322;2024-01-06T09:22:59;1.15;;;1.05;;
13240;SDS011;6687;47.790;7.322;2024-01-06T09:25:26;1.05;;;1.05;;
13240;SDS011;6687;47.790;7.322;2024-01-06T09:27:54;0.52;;;0.52;;
13240;SDS011;6687;47.790;7.322;2024-01-06T09:30:21;1.70;;;1.13;;
13240;SDS011;6687;47.790;7.322;2024-01-06T09:32:47;1.50;;;0.98;;
13240;SDS011;6687;47.790;7.322;2024-01-06T09:35:14;0.63;;;0.63;;
13240;SDS011;6687;47.790;7.322;2024-01-06T09:37:41;0.70;;;0.70;;
13240;SDS011;6687;47.790;7.322;2024-01-06T09:40:08;0.82;;;0.82;;
13240;SDS011;6687;47.790;7.322;2024-01-06T09:42:39;0.90;;;0.90;;
13240;SDS011;6687;47.790;7.322;2024-01-06T09:45:07;1.30;;;1.20;;
13240;SDS011;6687;47.790;7.322;2024-01-06T09:47:34;0.80;;;0.80;;
13240;SDS011;6687;47.790;7.322;2024-01-06T09:50:03;0.50;;;0.50;;
13240;SDS011;6687;47.790;7.322;2024-01-06T09:52:34;0.68;;;0.68;;
13240;SDS011;6687;47.790;7.322;2024-01-06T09:55:05;0.70;;;0.70;;
13240;SDS011;6687;47.790;7.322;2024-01-06T09:57:36;0.30;;;0.30;;
13240;SDS011;6687;47.790;7.322;2024-01-06T10:00:03;1.13;;;0.80;;
13240;SDS011;6687;47.790;7.322;2024-01-06T10:02:34;0.40;;;0.40;;
13240;SDS011;6687;47.790;7.322;2024-01-06T10:05:01;0.52;;;0.52;;
13240;SDS011;6687;47.790;7.322;2024-01-06T10:07:28;0.68;;;0.68;;
13240;SDS011;6687;47.790;7.322;2024-01-06T10:09:55;0.68;;;0.68;;
13240;SDS011;6687;47.790;7.322;2024-01-06T10:12:22;0.57;;;0.57;;
13240;SDS011;6687;47.790;7.322;2024-01-06T10:14:50;0.70;;;0.70;;
13240;SDS011;6687;47.790;7.322;2024-01-06T10:17:16;0.70;;;0.70;;
13240;SDS011;6687;47.790;7.322;2024-01-06T10:19:46;1.83;;;1.17;;
13240;SDS011;6687;47.790;7.322;2024-01-06T10:22:13;0.80;;;0.80;;
13240;SDS011;6687;47.790;7.322;2024-01-06T10:24:40;1.25;;;1.15;;
13240;SDS011;6687;47.790;7.322;2024-01-06T10:27:07;1.25;;;1.17;;
13240;SDS011;6687;47.790;7.322;2024-01-06T10:29:35;1.05;;;0.90;;
13240;SDS011;6687;47.790;7.322;2024-01-06T10:32:02;0.70;;;0.70;;
13240;SDS011;6687;47.790;7.322;2024-01-06T10:34:29;0.60;;;0.60;;
13240;SDS011;6687;47.790;7.322;2024-01-06T10:36:58;0.57;;;0.57;;
13240;SDS011;6687;47.790;7.322;2024-01-06T10:39:25;0.93;;;0.90;;
13240;SDS011;6687;47.790;7.322;2024-01-06T10:41:54;0.68;;;0.65;;
13240;SDS011;6687;47.790;7.322;2024-01-06T10:44:23;0.60;;;0.60;;
13240;SDS011;6687;47.790;7.322;2024-01-06T10:46:50;0.73;;;0.63;;
13240;SDS011;6687;47.790;7.322;2024-01-06T10:49:19;0.45;;;0.45;;
13240;SDS011;6687;47.790;7.322;2024-01-06T10:51:47;0.57;;;0.57;;
13240;SDS011;6687;47.790;7.322;2024-01-06T10:54:17;0.63;;;0.63;;
13240;SDS011;6687;47.790;7.322;2024-01-06T10:56:45;0.60;;;0.60;;
13240;SDS011;6687;47.790;7.322;2024-01-06T10:59:13;0.50;;;0.50;;
13240;SDS011;6687;47.790;7.322;2024-01-06T11:01:41;0.63;;;0.63;;
13240;SDS011;6687;47.790;7.322;2024-01-06T11:04:08;0.50;;;0.50;;
13240;SDS011;6687;47.790;7.322;2024-01-06T11:06:35;0.77;;;0.77;;
13240;SDS011;6687;47.790;7.322;2024-01-06T11:09:05;0.70;;;0.70;;
13240;SDS011;6687;47.790;7.322;2024-01-06T11:11:37;0.60;;;0.60;;
13240;SDS011;6687;47.790;7.322;2024-01-06T11:14:18;1.23;;;1.23;;
13240;SDS011;6687;47.790;7.322;2024-01-06T11:16:45;0.25;;;0.25;;
13240;SDS011;6687;47.790;7.322;2024-01-06T11:22:19;0.57;;;0.57;;
13240;SDS011;6687;47.790;7.322;2024-01-06T11:24:51;0.38;;;0.38;;
13240;SDS011;6687;47.790;7.322;2024-01-06T11:27:22;0.80;;;0.70;;
13240;SDS011;6687;47.790;7.322;2024-01-06T11:29:51;0.70;;;0.70;;
13240;SDS011;6687;47.790;7.322;2024-01-06T11:32:19;0.80;;;0.80;;
13240;SDS011;6687;47.790;7.322;2024-01-06T11:34:47;1.20;;;1.10;;
13240;SDS011;6687;47.790;7.322;2024-01-06T11:37:17;1.05;;;1.05;;
13240;SDS011;6687;47.790;7.322;2024-01-06T11:39:44;0.82;;;0.80;;
13240;SDS011;6687;47.790;7.322;2024-01-06T11:42:11;1.17;;;1.17;;
13240;SDS011;6687;47.790;7.322;2024-01-06T11:44:39;0.50;;;0.50;;
13240;SDS011;6687;47.790;7.322;2024-01-06T11:47:10;0.65;;;0.65;;
13240;SDS011;6687;47.790;7.322;2024-01-06T11:49:40;0.52;;;0.52;;
13240;SDS011;6687;47.790;7.322;2024-01-06T11:52:10;1.10;;;1.05;;
13240;SDS011;6687;47.790;7.322;2024-01-06T11:54:38;0.65;;;0.65;;
13240;SDS011;6687;47.790;7.322;2024-01-06T11:57:06;1.33;;;0.80;;
13240;SDS011;6687;47.790;7.322;2024-01-06T11:59:34;0.88;;;0.88;;
13240;SDS011;6687;47.790;7.322;2024-01-06T12:02:02;0.98;;;0.88;;
13240;SDS011;6687;47.790;7.322;2024-01-06T12:04:29;1.75;;;1.05;;
13240;SDS011;6687;47.790;7.322;2024-01-06T12:07:04;0.98;;;0.98;;
13240;SDS011;6687;47.790;7.322;2024-01-06T12:09:32;1.05;;;0.95;;
13240;SDS011;6687;47.790;7.322;2024-01-06T12:12:00;1.15;;;1.05;;
13240;SDS011;6687;47.790;7.322;2024-01-06T12:14:28;0.85;;;0.50;;
13240;SDS011;6687;47.790;7.322;2024-01-06T12:16:54;0.40;;;0.40;;
13240;SDS011;6687;47.790;7.322;2024-01-06T12:19:27;0.60;;;0.60;;
13240;SDS011;6687;47.790;7.322;2024-01-06T12:21:54;1.48;;;0.82;;
13240;SDS011;6687;47.790;7.322;2024-01-06T12:24:22;0.80;;;0.80;;
13240;SDS011;6687;47.790;7.322;2024-01-06T12:26:49;0.65;;;0.65;;
13240;SDS011;6687;47.790;7.322;2024-01-06T12:29:16;0.93;;;0.80;;
13240;SDS011;6687;47.790;7.322;2024-01-06T12:31:43;0.70;;;0.70;;
13240;SDS011;6687;47.790;7.322;2024-01-06T12:34:10;0.80;;;0.80;;
13240;SDS011;6687;47.790;7.322;2024-01-06T12:36:39;2.33;;;1.08;;
13240;SDS011;6687;47.790;7.322;2024-01-06T12:39:10;1.20;;;0.68;;
13240;SDS011;6687;47.790;7.322;2024-01-06T12:41:38;0.40;;;0.40;;
13240;SDS011;6687;47.790;7.322;2024-01-06T12:44:05;0.70;;;0.70;;
13240;SDS011;6687;47.790;7.322;2024-01-06T12:46:32;0.45;;;0.45;;
13240;SDS011;6687;47.790;7.322;2024-01-06T12:48:59;1.15;;;0.70;;
13240;SDS011;6687;47.790;7.322;2024-01-06T12:51:25;1.50;;;1.08;;
13240;SDS011;6687;47.790;7.322;2024-01-06T12:53:53;0.57;;;0.57;;
13240;SDS011;6687;47.790;7.322;2024-01-06T12:56:20;0.90;;;0.80;;
13240;SDS011;6687;47.790;7.322;2024-01-06T12:58:47;2.67;;;1.85;;
13240;SDS011;6687;47.790;7.322;2024-01-06T13:01:14;1.58;;;1.48;;
13240;SDS011;6687;47.790;7.322;2024-01-06T13:03:41;1.27;;;0.93;;
13240;SDS011;6687;47.790;7.322;2024-01-06T13:06:08;0.75;;;0.75;;
13240;SDS011;6687;47.790;7.322;2024-01-06T13:08:35;1.33;;;1.30;;
13240;SDS011;6687;47.790;7.322;2024-01-06T13:11:04;0.60;;;0.60;;
13240;SDS011;6687;47.790;7.322;2024-01-06T13:13:31;0.75;;;0.60;;
13240;SDS011;6687;47.790;7.322;2024-01-06T13:15:58;0.50;;;0.50;;
13240;SDS011;6687;47.790;7.322;2024-01-06T13:18:26;1.05;;;0.63;;
13240;SDS011;6687;47.790;7.322;2024-01-06T13:20:53;1.10;;;1.00;;
13240;SDS011;6687;47.790;7.322;2024-01-06T13:23:20;1.30;;;0.90;;
13240;SDS011;6687;47.790;7.322;2024-01-06T13:25:46;0.70;;;0.70;;
13240;SDS011;6687;47.790;7.322;2024-01-06T13:28:14;1.27;;;1.00;;
13240;SDS011;6687;47.790;7.322;2024-01-06T13:30:42;1.13;;;1.02;;
13240;SDS011;6687;47.790;7.322;2024-01-06T13:33:09;0.68;;;0.68;;
13240;SDS011;6687;47.790;7.322;2024-01-06T13:35:36;0.65;;;0.65;;
13240;SDS011;6687;47.790;7.322;2024-01-06T13:38:03;1.02;;;0.52;;
13240;SDS011;6687;47.790;7.322;2024-01-06T13:40:30;0.50;;;0.50;;
13240;SDS011;6687;47.790;7.322;2024-01-06T13:42:57;0.30;;;0.30;;
13240;SDS011;6687;47.790;7.322;2024-01-06T13:45:25;0.60;;;0.60;;
13240;SDS011;6687;47.790;7.322;2024-01-06T13:47:53;1.08;;;0.95;;
13240;SDS011;6687;47.790;7.322;2024-01-06T13:50:19;0.85;;;0.85;;
13240;SDS011;6687;47.790;7.322;2024-01-06T13:52:46;1.25;;;1.15;;
13240;SDS011;6687;47.790;7.322;2024-01-06T13:55:14;0.85;;;0.70;;
13240;SDS011;6687;47.790;7.322;2024-01-06T13:57:41;0.95;;;0.90;;
13240;SDS011;6687;47.790;7.322;2024-01-06T14:00:08;0.40;;;0.40;;
13240;SDS011;6687;47.790;7.322;2024-01-06T14:02:37;0.60;;;0.60;;
13240;SDS011;6687;47.790;7.322;2024-01-06T14:05:04;0.63;;;0.63;;
13240;SDS011;6687;47.790;7.322;2024-01-06T14:07:33;1.08;;;0.98;;
13240;SDS011;6687;47.790;7.322;2024-01-06T14:10:00;0.80;;;0.80;;
13240;SDS011;6687;47.790;7.322;2024-01-06T14:12:28;0.90;;;0.85;;
13240;SDS011;6687;47.790;7.322;2024-01-06T14:14:56;0.82;;;0.82;;
13240;SDS011;6687;47.790;7.322;2024-01-06T14:17:23;0.70;;;0.70;;
13240;SDS011;6687;47.790;7.322;2024-01-06T14:19:52;0.20;;;0.20;;
13240;SDS011;6687;47.790;7.322;2024-01-06T14:22:18;0.68;;;0.55;;
13240;SDS011;6687;47.790;7.322;2024-01-06T14:24:45;0.98;;;0.70;;
13240;SDS011;6687;47.790;7.322;2024-01-06T14:27:12;1.17;;;1.05;;
13240;SDS011;6687;47.790;7.322;2024-01-06T14:29:39;0.55;;;0.55;;
13240;SDS011;6687;47.790;7.322;2024-01-06T14:32:06;0.30;;;0.30;;
13240;SDS011;6687;47.790;7.322;2024-01-06T14:34:33;1.67;;;0.65;;
13240;SDS011;6687;47.790;7.322;2024-01-06T14:37:01;0.52;;;0.52;;
13240;SDS011;6687;47.790;7.322;2024-01-06T14:39:28;1.20;;;0.75;;
13240;SDS011;6687;47.790;7.322;2024-01-06T14:41:55;0.57;;;0.57;;
13240;SDS011;6687;47.790;7.322;2024-01-06T14:44:21;0.60;;;0.60;;
13240;SDS011;6687;47.790;7.322;2024-01-06T14:46:49;2.63;;;1.67;;
13240;SDS011;6687;47.790;7.322;2024-01-06T14:49:18;1.27;;;1.08;;
13240;SDS011;6687;47.790;7.322;2024-01-06T14:51:44;1.55;;;1.45;;
13240;SDS011;6687;47.790;7.322;2024-01-06T14:54:13;5.53;;;3.50;;
13240;SDS011;6687;47.790;7.322;2024-01-06T14:56:39;5.03;;;3.72;;
13240;SDS011;6687;47.790;7.322;2024-01-06T14:59:06;4.68;;;3.10;;
13240;SDS011;6687;47.790;7.322;2024-01-06T15:01:33;3.50;;;2.92;;
13240;SDS011;6687;47.790;7.322;2024-01-06T15:04:00;2.72;;;2.50;;
13240;SDS011;6687;47.790;7.322;2024-01-06T15:06:26;2.83;;;2.22;;
13240;SDS011;6687;47.790;7.322;2024-01-06T15:08:53;1.63;;;1.52;;
13240;SDS011;6687;47.790;7.322;2024-01-06T15:11:21;2.40;;;1.95;;
13240;SDS011;6687;47.790;7.322;2024-01-06T15:13:48;2.67;;;1.50;;
13240;SDS011;6687;47.790;7.322;2024-01-06T15:16:14;2.58;;;1.63;;
13240;SDS011;6687;47.790;7.322;2024-01-06T15:18:41;1.70;;;1.55;;
13240;SDS011;6687;47.790;7.322;2024-01-06T15:21:08;1.95;;;1.85;;
13240;SDS011;6687;47.790;7.322;2024-01-06T15:23:34;1.95;;;1.77;;
13240;SDS011;6687;47.790;7.322;2024-01-06T15:26:01;1.52;;;1.42;;
13240;SDS011;6687;47.790;7.322;2024-01-06T15:28:30;1.42;;;1.33;;
13240;SDS011;6687;47.790;7.322;2024-01-06T15:30:56;1.33;;;1.23;;
13240;SDS011;6687;47.790;7.322;2024-01-06T15:33:25;1.00;;;0.98;;
13240;SDS011;6687;47.790;7.322;2024-01-06T15:35:52;1.08;;;0.98;;
13240;SDS011;6687;47.790;7.322;2024-01-06T15:38:19;1.58;;;0.98;;
13240;SDS011;6687;47.790;7.322;2024-01-06T15:40:46;0.90;;;0.90;;
13240;SDS011;6687;47.790;7.322;2024-01-06T15:43:12;1.17;;;1.08;;
13240;SDS011;6687;47.790;7.322;2024-01-06T15:45:40;1.00;;;0.95;;
13240;SDS011;6687;47.790;7.322;2024-01-06T15:48:07;1.23;;;1.13;;
13240;SDS011;6687;47.790;7.322;2024-01-06T15:50:34;0.75;;;0.75;;
13240;SDS011;6687;47.790;7.322;2024-01-06T15:53:01;0.63;;;0.63;;
13240;SDS011;6687;47.790;7.322;2024-01-06T15:55:29;0.75;;;0.68;;
13240;SDS011;6687;47.790;7.322;2024-01-06T15:57:55;1.13;;;1.02;;
13240;SDS011;6687;47.790;7.322;2024-01-06T16:00:22;0.90;;;0.90;;
13240;SDS011;6687;47.790;7.322;2024-01-06T16:02:50;1.08;;;1.08;;
13240;SDS011;6687;47.790;7.322;2024-01-06T16:05:17;1.02;;;1.02;;
13240;SDS011;6687;47.790;7.322;2024-01-06T16:07:44;1.20;;;1.10;;
13240;SDS011;6687;47.790;7.322;2024-01-06T16:10:10;1.23;;;1.13;;
13240;SDS011;6687;47.790;7.322;2024-01-06T16:12:38;1.63;;;1.52;;
13240;SDS011;6687;47.790;7.322;2024-01-06T16:15:05;1.50;;;1.40;;
13240;SDS011;6687;47.790;7.322;2024-01-06T16:17:33;2.15;;;1.77;;
13240;SDS011;6687;47.790;7.322;2024-01-06T16:20:01;2.65;;;2.45;;
13240;SDS011;6687;47.790;7.322;2024-01-06T16:22:28;2.28;;;2.08;;
13240;SDS011;6687;47.790;7.322;2024-01-06T16:24:54;1.92;;;1.75;;
13240;SDS011;6687;47.790;7.322;2024-01-06T16:27:21;1.70;;;1.60;;
13240;SDS011;6687;47.790;7.322;2024-01-06T16:29:48;2.30;;;1.80;;
13240;SDS011;6687;47.790;7.322;2024-01-06T16:32:14;1.98;;;1.75;;
13240;SDS011;6687;47.790;7.322;2024-01-06T16:34:42;1.70;;;1.52;;
13240;SDS011;6687;47.790;7.322;2024-01-06T16:37:11;1.42;;;1.33;;
13240;SDS011;6687;47.790;7.322;2024-01-06T16:39:37;2.35;;;1.88;;
13240;SDS011;6687;47.790;7.322;2024-01-06T16:42:04;2.35;;;2.15;;
13240;SDS011;6687;47.790;7.322;2024-01-06T16:44:31;2.60;;;2.08;;
13240;SDS011;6687;47.790;7.322;2024-01-06T16:46:58;1.48;;;1.38;;
13240;SDS011;6687;47.790;7.322;2024-01-06T16:49:25;1.48;;;1.42;;
13240;SDS011;6687;47.790;7.322;2024-01-06T16:51:52;1.30;;;1.17;;
13240;SDS011;6687;47.790;7.322;2024-01-06T16:54:21;2.55;;;1.52;;
13240;SDS011;6687;47.790;7.322;2024-01-06T16:56:48;2.63;;;2.40;;
13240;SDS011;6687;47.790;7.322;2024-01-06T16:59:14;2.38;;;1.80;;
13240;SDS011;6687;47.790;7.322;2024-01-06T17:01:41;2.17;;;1.92;;
13240;SDS011;6687;47.790;7.322;2024-01-06T17:04:08;2.30;;;2.10;;
13240;SDS011;6687;47.790;7.322;2024-01-06T17:06:37;2.88;;;2.03;;
13240;SDS011;6687;47.790;7.322;2024-01-06T17:09:04;2.53;;;2.30;;
13240;SDS011;6687;47.790;7.322;2024-01-06T17:11:32;2.05;;;1.85;;
13240;SDS011;6687;47.790;7.322;2024-01-06T17:13:59;1.88;;;1.77;;
13240;SDS011;6687;47.790;7.322;2024-01-06T17:16:26;1.38;;;1.27;;
13240;SDS011;6687;47.790;7.322;2024-01-06T17:18:52;2.13;;;1.70;;
13240;SDS011;6687;47.790;7.322;2024-01-06T17:21:19;1.50;;;1.40;;
13240;SDS011;6687;47.790;7.322;2024-01-06T17:23:46;3.83;;;2.42;;
13240;SDS011;6687;47.790;7.322;2024-01-06T17:26:15;3.33;;;3.00;;
13240;SDS011;6687;47.790;7.322;2024-01-06T17:28:44;6.45;;;3.67;;
13240;SDS011;6687;47.790;7.322;2024-01-06T17:31:11;3.80;;;2.70;;
13240;SDS011;6687;47.790;7.322;2024-01-06T17:33:38;5.05;;;3.80;;
13240;SDS011;6687;47.790;7.322;2024-01-06T17:36:05;7.53;;;4.82;;
13240;SDS011;6687;47.790;7.322;2024-01-06T17:38:32;9.32;;;5.68;;
13240;SDS011;6687;47.790;7.322;2024-01-06T17:40:59;4.97;;;4.35;;
13240;SDS011;6687;47.790;7.322;2024-01-06T17:43:26;5.03;;;3.63;;
13240;SDS011;6687;47.790;7.322;2024-01-06T17:45:54;2.72;;;2.42;;
13240;SDS011;6687;47.790;7.322;2024-01-06T17:48:21;2.22;;;2.10;;
13240;SDS011;6687;47.790;7.322;2024-01-06T17:50:47;2.33;;;2.03;;
13240;SDS011;6687;47.790;7.322;2024-01-06T17:53:14;1.63;;;1.52;;
13240;SDS011;6687;47.790;7.322;2024-01-06T17:55:41;1.95;;;1.85;;
13240;SDS011;6687;47.790;7.322;2024-01-06T17:58:08;2.97;;;2.55;;
13240;SDS011;6687;47.790;7.322;2024-01-06T18:00:35;3.80;;;3.50;;
13240;SDS011;6687;47.790;7.322;2024-01-06T18:03:03;4.32;;;3.92;;
13240;SDS011;6687;47.790;7.322;2024-01-06T18:05:31;3.78;;;3.30;;
13240;SDS011;6687;47.790;7.322;2024-01-06T18:07:58;2.63;;;2.42;;
13240;SDS011;6687;47.790;7.322;2024-01-06T18:10:25;4.00;;;3.20;;
13240;SDS011;6687;47.790;7.322;2024-01-06T18:12:52;2.40;;;2.20;;
13240;SDS011;6687;47.790;7.322;2024-01-06T18:15:19;5.53;;;2.70;;
13240;SDS011;6687;47.790;7.322;2024-01-06T18:17:45;3.20;;;2.60;;
13240;SDS011;6687;47.790;7.322;2024-01-06T18:20:14;2.92;;;2.38;;
13240;SDS011;6687;47.790;7.322;2024-01-06T18:22:46;2.00;;;1.73;;
13240;SDS011;6687;47.790;7.322;2024-01-06T18:25:13;1.92;;;1.73;;
13240;SDS011;6687;47.790;7.322;2024-01-06T18:27:39;1.58;;;1.48;;
13240;SDS011;6687;47.790;7.322;2024-01-06T18:30:07;1.90;;;1.80;;
13240;SDS011;6687;47.790;7.322;2024-01-06T18:32:34;1.08;;;1.00;;
13240;SDS011;6687;47.790;7.322;2024-01-06T18:35:01;2.03;;;1.80;;
13240;SDS011;6687;47.790;7.322;2024-01-06T18:37:29;1.45;;;1.42;;
13240;SDS011;6687;47.790;7.322;2024-01-06T18:39:55;2.00;;;1.90;;
13240;SDS011;6687;47.790;7.322;2024-01-06T18:42:22;2.13;;;1.90;;
13240;SDS011;6687;47.790;7.322;2024-01-06T18:44:49;1.70;;;1.33;;
13240;SDS011;6687;47.790;7.322;2024-01-06T18:47:16;3.42;;;2.17;;
13240;SDS011;6687;47.790;7.322;2024-01-06T18:49:43;6.90;;;3.95;;
13240;SDS011;6687;47.790;7.322;2024-01-06T18:52:09;4.30;;;3.15;;
13240;SDS011;6687;47.790;7.322;2024-01-06T18:54:38;5.20;;;4.60;;
13240;SDS011;6687;47.790;7.322;2024-01-06T18:57:04;3.42;;;3.10;;
13240;SDS011;6687;47.790;7.322;2024-01-06T18:59:31;2.38;;;2.17;;
13240;SDS011;6687;47.790;7.322;2024-01-06T19:01:58;2.30;;;1.77;;
13240;SDS011;6687;47.790;7.322;2024-01-06T19:04:25;2.00;;;1.90;;
13240;SDS011;6687;47.790;7.322;2024-01-06T19:06:52;2.20;;;2.03;;
13240;SDS011;6687;47.790;7.322;2024-01-06T19:09:18;0.90;;;0.90;;
13240;SDS011;6687;47.790;7.322;2024-01-06T19:11:47;1.00;;;1.00;;
13240;SDS011;6687;47.790;7.322;2024-01-06T19:14:14;1.33;;;1.23;;
13240;SDS011;6687;47.790;7.322;2024-01-06T19:16:41;1.15;;;1.05;;
13240;SDS011;6687;47.790;7.322;2024-01-06T19:19:10;1.33;;;1.33;;
13240;SDS011;6687;47.790;7.322;2024-01-06T19:21:37;1.85;;;1.40;;
13240;SDS011;6687;47.790;7.322;2024-01-06T19:24:04;0.73;;;0.73;;
13240;SDS011;6687;47.790;7.322;2024-01-06T19:26:31;1.08;;;1.08;;
13240;SDS011;6687;47.790;7.322;2024-01-06T19:28:59;1.40;;;1.23;;
13240;SDS011;6687;47.790;7.322;2024-01-06T19:31:26;1.20;;;1.20;;
13240;SDS011;6687;47.790;7.322;2024-01-06T19:33:52;1.20;;;1.20;;
13240;SDS011;6687;47.790;7.322;2024-01-06T19:36:20;1.17;;;1.10;;
13240;SDS011;6687;47.790;7.322;2024-01-06T19:38:46;1.70;;;1.60;;
13240;SDS011;6687;47.790;7.322;2024-01-06T19:41:13;1.88;;;1.63;;
13240;SDS011;6687;47.790;7.322;2024-01-06T19:43:40;2.05;;;1.83;;
13240;SDS011;6687;47.790;7.322;2024-01-06T19:46:09;2.95;;;2.42;;
13240;SDS011;6687;47.790;7.322;2024-01-06T19:48:37;2.38;;;2.17;;
13240;SDS011;6687;47.790;7.322;2024-01-06T19:51:03;2.70;;;2.03;;
13240;SDS011;6687;47.790;7.322;2024-01-06T19:53:30;8.02;;;3.30;;
13240;SDS011;6687;47.790;7.322;2024-01-06T19:55:58;3.72;;;3.08;;
13240;SDS011;6687;47.790;7.322;2024-01-06T19:58:26;5.45;;;3.58;;
13240;SDS011;6687;47.790;7.322;2024-01-06T20:00:53;4.18;;;3.45;;
13240;SDS011;6687;47.790;7.322;2024-01-06T20:03:21;3.33;;;2.78;;
13240;SDS011;6687;47.790;7.322;2024-01-06T20:05:48;4.28;;;3.25;;
13240;SDS011;6687;47.790;7.322;2024-01-06T20:08:14;3.92;;;3.05;;
13240;SDS011;6687;47.790;7.322;2024-01-06T20:10:41;4.30;;;3.35;;
13240;SDS011;6687;47.790;7.322;2024-01-06T20:13:08;4.05;;;2.90;;
13240;SDS011;6687;47.790;7.322;2024-01-06T20:15:35;3.42;;;2.55;;
13240;SDS011;6687;47.790;7.322;2024-01-06T20:18:02;1.88;;;1.77;;
13240;SDS011;6687;47.790;7.322;2024-01-06T20:20:30;1.70;;;1.60;;
13240;SDS011;6687;47.790;7.322;2024-01-06T20:22:57;2.45;;;2.25;;
13240;SDS011;6687;47.790;7.322;2024-01-06T20:25:23;3.42;;;1.80;;
13240;SDS011;6687;47.790;7.322;2024-01-06T20:27:50;1.33;;;1.00;;
13240;SDS011;6687;47.790;7.322;2024-01-06T20:30:17;0.80;;;0.80;;
13240;SDS011;6687;47.790;7.322;2024-01-06T20:32:44;1.02;;;1.00;;
13240;SDS011;6687;47.790;7.322;2024-01-06T20:35:11;0.73;;;0.70;;
13240;SDS011;6687;47.790;7.322;2024-01-06T20:37:39;0.88;;;0.88;;
13240;SDS011;6687;47.790;7.322;2024-01-06T20:40:06;0.50;;;0.50;;
13240;SDS011;6687;47.790;7.322;2024-01-06T20:42:34;0.47;;;0.47;;
13240;SDS011;6687;47.790;7.322;2024-01-06T20:45:01;0.80;;;0.77;;
13240;SDS011;6687;47.790;7.322;2024-01-06T20:47:29;1.08;;;0.98;;
13240;SDS011;6687;47.790;7.322;2024-01-06T20:49:56;0.65;;;0.65;;
13240;SDS011;6687;47.790;7.322;2024-01-06T20:52:23;0.50;;;0.50;;
13240;SDS011;6687;47.790;7.322;2024-01-06T20:54:52;0.60;;;0.60;;
13240;SDS011;6687;47.790;7.322;2024-01-06T20:57:19;0.73;;;0.70;;
13240;SDS011;6687;47.790;7.322;2024-01-06T20:59:46;1.05;;;1.00;;
13240;SDS011;6687;47.790;7.322;2024-01-06T21:02:14;1.27;;;1.17;;
13240;SDS011;6687;47.790;7.322;2024-01-06T21:04:42;1.40;;;1.30;;
13240;SDS011;6687;47.790;7.322;2024-01-06T21:07:09;1.40;;;1.30;;
13240;SDS011;6687;47.790;7.322;2024-01-06T21:09:36;0.77;;;0.73;;
13240;SDS011;6687;47.790;7.322;2024-01-06T21:12:04;1.25;;;1.13;;
13240;SDS011;6687;47.790;7.322;2024-01-06T21:14:31;1.33;;;1.33;;
13240;SDS011;6687;47.790;7.322;2024-01-06T21:16:58;1.80;;;1.70;;
13240;SDS011;6687;47.790;7.322;2024-01-06T21:19:25;1.38;;;1.27;;
13240;SDS011;6687;47.790;7.322;2024-01-06T21:21:52;0.85;;;0.85;;